Time;durP1;ratioP1;P1;durP2;ratioP2;P2;SDS_P1;SDS_P2;PMS_P1;PMS_P2;Temp;Humidity;BMP_temperature;BMP_pressure;BME280_temperature;BME280_humidity;BME280_pressure;Samples;Min_cycle;Max_cycle;Signal;HPM_P1;HPM_P2
2023/02/15 00:01:43;;;;;;;107.87;96.85;;;;;;;;;;1744461;82;27317;-46
2023/02/15 00:04:10;;;;;;;;;;;;;;;;;;1747001;81;25602;-46
2023/02/15 00:06:36;;;;;;;108.67;97.00;;;;;;;;;;1743674;81;26057;-47
2023/02/15 00:09:04;;;;;;;64.42;35.58;;;;;;;;;;1743457;81;35115;-46
2023/02/15 00:11:40;;;;;;;57.30;28.52;;;;;;;;;;1744317;80;25461;-46
2023/02/15 00:14:24;;;;;;;108.37;97.15;;;;;;;;;;1744483;82;27331;-46
2023/02/15 00:16:54;;;;;;;111.45;100.38;;;;;;;;;;1744493;81;27057;-47
2023/02/15 00:19:22;;;;;;;95.85;85.75;;;;;;;;;;1744460;82;25530;-48
2023/02/15 00:21:50;;;;;;;96.10;86.28;;;;;;;;;;1744419;82;25395;-46
2023/02/15 00:24:18;;;;;;;88.05;70.30;;;;;;;;;;1744496;82;25460;-47
2023/02/15 00:26:48;;;;;;;74.77;55.48;;;;;;;;;;1744463;82;29546;-46
2023/02/15 00:29:16;;;;;;;94.45;84.00;;;;;;;;;;1744349;82;25559;-46
2023/02/15 00:31:42;;;;;;;68.17;49.88;;;;;;;;;;1744442;82;25602;-46
2023/02/15 00:34:15;;;;;;;109.35;98.27;;;;;;;;;;1744484;81;25456;-47
2023/02/15 00:36:43;;;;;;;110.05;98.90;;;;;;;;;;1744575;80;25538;-49
2023/02/15 00:39:11;;;;;;;104.35;93.52;;;;;;;;;;1744434;82;27367;-47
2023/02/15 00:41:38;;;;;;;106.12;95.05;;;;;;;;;;1744395;82;25455;-47
2023/02/15 00:44:06;;;;;;;111.83;100.45;;;;;;;;;;1744460;82;25388;-47
2023/02/15 00:46:32;;;;;;;106.97;96.20;;;;;;;;;;1734130;82;25559;-49
2023/02/15 00:48:57;;;;;;;107.85;96.25;;;;;;;;;;1744523;81;30952;-46
2023/02/15 00:51:25;;;;;;;103.97;93.67;;;;;;;;;;1748638;82;27346;-47
2023/02/15 00:53:53;;;;;;;103.58;93.25;;;;;;;;;;1749437;81;25710;-47
2023/02/15 00:56:20;;;;;;;104.05;93.50;;;;;;;;;;1749528;81;25445;-46
2023/02/15 00:58:47;;;;;;;104.50;94.35;;;;;;;;;;1749474;81;25594;-47
2023/02/15 01:01:15;;;;;;;107.78;96.85;;;;;;;;;;1749458;82;25488;-47
2023/02/15 01:03:41;;;;;;;73.90;66.42;;;;;;;;;;1749654;81;27407;-47
2023/02/15 01:06:09;;;;;;;107.12;96.28;;;;;;;;;;1749421;81;25542;-46
2023/02/15 01:08:35;;;;;;;106.12;95.55;;;;;;;;;;1749450;81;25442;-46
2023/02/15 01:11:08;;;;;;;108.07;96.65;;;;;;;;;;1749266;81;34770;-47
2023/02/15 01:13:36;;;;;;;106.15;95.25;;;;;;;;;;1749509;82;25613;-47
2023/02/15 01:16:04;;;;;;;105.03;94.05;;;;;;;;;;1749468;82;27431;-46
2023/02/15 01:18:31;;;;;;;106.70;95.60;;;;;;;;;;1749379;81;25851;-48
2023/02/15 01:20:57;;;;;;;108.35;97.20;;;;;;;;;;1749516;82;25450;-46
2023/02/15 01:23:23;;;;;;;107.32;96.80;;;;;;;;;;1749671;81;25999;-45
2023/02/15 01:25:51;;;;;;;97.05;86.70;;;;;;;;;;1749654;82;25570;-48
2023/02/15 01:28:17;;;;;;;103.45;92.22;;;;;;;;;;1749662;82;27438;-46
2023/02/15 01:30:44;;;;;;;107.63;96.25;;;;;;;;;;1749507;81;27033;-47
2023/02/15 01:33:17;;;;;;;109.27;98.60;;;;;;;;;;1749576;82;29052;-46
2023/02/15 01:35:40;;;;;;;103.75;93.40;;;;;;;;;;1750168;81;26011;-48
2023/02/15 01:38:06;;;;;;;87.50;78.50;;;;;;;;;;1749621;82;32663;-47
2023/02/15 01:40:31;;;;;;;99.73;89.50;;;;;;;;;;1749590;82;27371;-47
2023/02/15 01:42:57;;;;;;;103.23;92.93;;;;;;;;;;1749516;82;30857;-47
2023/02/15 01:45:30;;;;;;;104.37;93.90;;;;;;;;;;1749596;82;27516;-50
2023/02/15 01:48:15;;;;;;;103.12;92.67;;;;;;;;;;1749572;82;25457;-47
2023/02/15 01:50:45;;;;;;;104.12;93.52;;;;;;;;;;1749666;82;25411;-47
2023/02/15 01:53:26;;;;;;;101.05;90.57;;;;;;;;;;1749611;82;27409;-47
2023/02/15 01:56:11;;;;;;;82.90;73.97;;;;;;;;;;1749545;82;25605;-46
2023/02/15 01:58:39;;;;;;;101.45;91.05;;;;;;;;;;1749657;81;25448;-46
2023/02/15 02:01:08;;;;;;;104.65;93.40;;;;;;;;;;1749578;81;25577;-47
2023/02/15 02:04:04;;;;;;;107.03;96.05;;;;;;;;;;1749754;81;25523;-45
2023/02/15 02:06:32;;;;;;;104.63;94.10;;;;;;;;;;1749588;82;27527;-46
2023/02/15 02:08:58;;;;;;;103.32;92.62;;;;;;;;;;1749581;81;25961;-47
2023/02/15 02:11:25;;;;;;;103.35;93.50;;;;;;;;;;1739267;82;25605;-47
2023/02/15 02:13:53;;;;;;;103.22;92.10;;;;;;;;;;1749538;82;27500;-46
2023/02/15 02:16:29;;;;;;;105.97;95.05;;;;;;;;;;1749593;81;25390;-46
2023/02/15 02:19:11;;;;;;;105.10;94.92;;;;;;;;;;1749290;81;27420;-47
2023/02/15 02:22:04;;;;;;;102.27;91.50;;;;;;;;;;1749074;81;25639;-47
2023/02/15 02:24:51;;;;;;;104.20;93.90;;;;;;;;;;1749609;81;25523;-46
2023/02/15 02:27:37;;;;;;;105.72;95.15;;;;;;;;;;1749564;81;25402;-47
2023/02/15 02:30:31;;;;;;;103.67;93.42;;;;;;;;;;1749570;82;25553;-46
2023/02/15 02:33:26;;;;;;;104.27;93.17;;;;;;;;;;1749568;82;27391;-46
2023/02/15 02:35:55;;;;;;;101.67;91.95;;;;;;;;;;1655722;86;25539;-45
2023/02/15 02:38:25;;;;;;;104.27;93.52;;;;;;;;;;1655107;86;25681;-47
2023/02/15 02:40:57;;;;;;;101.12;91.22;;;;;;;;;;1655076;86;25800;-47
2023/02/15 02:43:49;;;;;;;105.60;95.28;;;;;;;;;;1656061;86;25540;-47
2023/02/15 02:46:34;;;;;;;104.87;94.22;;;;;;;;;;1629286;88;27421;-45
2023/02/15 02:49:02;;;;;;;100.60;90.03;;;;;;;;;;1631173;87;25579;-46
2023/02/15 02:51:29;;;;;;;103.00;92.82;;;;;;;;;;1624525;88;25653;-46
2023/02/15 02:53:58;;;;;;;104.92;94.25;;;;;;;;;;1668798;82;25492;-46
2023/02/15 02:56:30;;;;;;;103.62;92.90;;;;;;;;;;1698805;84;25627;-48
2023/02/15 02:59:02;;;;;;;103.30;92.62;;;;;;;;;;1698719;84;27508;-48
2023/02/15 03:01:34;;;;;;;102.90;92.95;;;;;;;;;;1698620;84;25531;-46
2023/02/15 03:04:07;;;;;;;70.22;47.40;;;;;;;;;;1698705;84;25517;-46
2023/02/15 03:06:39;;;;;;;104.72;94.20;;;;;;;;;;1698154;84;25503;-48
2023/02/15 03:09:21;;;;;;;102.07;91.95;;;;;;;;;;1698666;84;25775;-47
2023/02/15 03:11:48;;;;;;;101.10;91.05;;;;;;;;;;1697821;84;27571;-45
2023/02/15 03:14:16;;;;;;;105.12;94.17;;;;;;;;;;1698062;84;26999;-48
2023/02/15 03:16:45;;;;;;;103.22;92.35;;;;;;;;;;1725766;83;25509;-46
2023/02/15 03:19:17;;;;;;;106.00;95.47;;;;;;;;;;1725688;83;25891;-46
2023/02/15 03:21:49;;;;;;;101.55;91.30;;;;;;;;;;1725749;83;25450;-46
2023/02/15 03:24:18;;;;;;;101.78;91.82;;;;;;;;;;1725720;83;27368;-46
2023/02/15 03:26:47;;;;;;;102.90;92.78;;;;;;;;;;1725757;83;25547;-46
2023/02/15 03:29:15;;;;;;;103.80;93.53;;;;;;;;;;1726053;83;25432;-46
2023/02/15 03:31:44;;;;;;;102.38;92.33;;;;;;;;;;1725633;83;25574;-46
2023/02/15 03:34:12;;;;;;;105.03;94.60;;;;;;;;;;1725966;83;25452;-48
2023/02/15 03:36:59;;;;;;;66.77;41.55;;;;;;;;;;1725730;83;27394;-46
2023/02/15 03:39:38;;;;;;;50.30;24.60;;;;;;;;;;1701298;83;25695;-47
2023/02/15 03:42:11;;;;;;;56.02;32.88;;;;;;;;;;1725724;83;25396;-47
2023/02/15 03:44:40;;;;;;;57.40;27.85;;;;;;;;;;1725303;83;25412;-48
2023/02/15 03:47:18;;;;;;;103.05;92.55;;;;;;;;;;1724083;83;25467;-47
2023/02/15 03:51:33;;;;;;;104.97;93.95;;;;;;;;;;1763520;81;27399;-47
2023/02/15 03:52:34;;;;;;;103.25;92.75;;;;;;;;;;1751673;81;27047;-46
2023/02/15 03:55:00;;;;;;;51.90;23.15;;;;;;;;;;1728928;82;25604;-47
2023/02/15 04:03:23;;;;;;;49.45;22.25;;;;;;;;;;1782718;80;28025;-46
2023/02/15 04:05:50;;;;;;;44.23;20.50;;;;;;;;;;1782619;80;25601;-47
2023/02/15 04:08:16;;;;;;;50.70;22.82;;;;;;;;;;1782624;80;25556;-47
2023/02/15 04:10:55;;;;;;;51.77;24.35;;;;;;;;;;1782570;80;34725;-47
2023/02/15 04:13:24;;;;;;;50.15;21.90;;;;;;;;;;1782669;80;25503;-47
2023/02/15 04:16:02;;;;;;;52.03;21.48;;;;;;;;;;1782661;80;27343;-47
2023/02/15 04:26:47;;;;;;;51.55;23.38;;;;;;;;;;1782682;80;25399;-46
2023/02/15 04:29:15;;;;;;;62.75;38.02;;;;;;;;;;1782632;80;27396;-47
2023/02/15 04:31:42;;;;;;;75.15;67.20;;;;;;;;;;1780845;80;25488;-45
2023/02/15 04:34:10;;;;;;;105.65;95.00;;;;;;;;;;1782690;80;25571;-46
2023/02/15 04:36:37;;;;;;;93.27;83.20;;;;;;;;;;1782693;80;25875;-47
2023/02/15 04:39:04;;;;;;;103.58;93.42;;;;;;;;;;1782697;80;25409;-47
2023/02/15 04:41:29;;;;;;;103.60;92.45;;;;;;;;;;1782608;80;27374;-47
2023/02/15 04:43:56;;;;;;;103.77;93.27;;;;;;;;;;1782526;80;28255;-47
2023/02/15 04:46:22;;;;;;;107.63;96.05;;;;;;;;;;1782661;80;25581;-47
2023/02/15 04:48:48;;;;;;;89.47;77.75;;;;;;;;;;1782642;80;25457;-47
2023/02/15 04:51:14;;;;;;;89.35;79.72;;;;;;;;;;1782600;80;32169;-47
2023/02/15 04:53:40;;;;;;;103.25;92.57;;;;;;;;;;1782618;80;27408;-47
2023/02/15 04:56:06;;;;;;;104.53;93.47;;;;;;;;;;1755968;80;29070;-47
2023/02/15 04:58:32;;;;;;;102.60;92.62;;;;;;;;;;1755398;81;25566;-47
2023/02/15 05:00:59;;;;;;;104.53;93.67;;;;;;;;;;1725257;83;25397;-47
2023/02/15 05:03:25;;;;;;;104.38;93.70;;;;;;;;;;1755414;81;25345;-47
2023/02/15 05:05:51;;;;;;;102.72;92.40;;;;;;;;;;1755402;81;27240;-47
2023/02/15 05:08:17;;;;;;;107.93;96.67;;;;;;;;;;1755269;81;28051;-47
2023/02/15 05:10:43;;;;;;;103.10;92.65;;;;;;;;;;1755392;81;25534;-47
2023/02/15 05:13:09;;;;;;;106.05;95.55;;;;;;;;;;1755377;81;25996;-47
2023/02/15 05:15:35;;;;;;;104.50;93.87;;;;;;;;;;1755392;81;32024;-47
2023/02/15 05:18:01;;;;;;;103.03;92.57;;;;;;;;;;1755481;81;27412;-47
2023/02/15 05:20:27;;;;;;;102.93;92.53;;;;;;;;;;1755286;81;28052;-47
2023/02/15 05:22:54;;;;;;;105.05;94.32;;;;;;;;;;1755370;81;25537;-48
2023/02/15 05:28:20;;;;;;;105.17;94.65;;;;;;;;;;1755413;81;25377;-47
2023/02/15 05:30:50;;;;;;;56.70;32.63;;;;;;;;;;1755364;81;27334;-48
2023/02/15 05:33:17;;;;;;;52.67;23.73;;;;;;;;;;1755323;81;25467;-47
2023/02/15 05:35:43;;;;;;;83.95;73.85;;;;;;;;;;1755397;81;25558;-46
2023/02/15 05:38:09;;;;;;;106.78;95.75;;;;;;;;;;1755318;81;34828;-49
2023/02/15 05:40:35;;;;;;;47.67;22.00;;;;;;;;;;1755431;81;25563;-47
2023/02/15 05:43:01;;;;;;;60.15;27.10;;;;;;;;;;1755373;81;27424;-47
2023/02/15 05:45:27;;;;;;;61.77;41.33;;;;;;;;;;1755411;81;30893;-50
2023/02/15 05:47:53;;;;;;;97.90;87.82;;;;;;;;;;1755437;81;25365;-48
2023/02/15 05:50:19;;;;;;;75.03;52.88;;;;;;;;;;1755311;81;35213;-49
2023/02/15 05:52:45;;;;;;;100.60;89.92;;;;;;;;;;1755349;81;32537;-47
2023/02/15 05:55:12;;;;;;;69.10;48.73;;;;;;;;;;1756318;80;27366;-48
2023/02/15 05:57:38;;;;;;;102.53;92.20;;;;;;;;;;1757446;81;25639;-47
2023/02/15 06:00:06;;;;;;;73.62;54.13;;;;;;;;;;1728056;81;25591;-47
2023/02/15 06:02:36;;;;;;;79.70;71.33;;;;;;;;;;1757505;81;25565;-46
2023/02/15 06:05:03;;;;;;;80.87;64.30;;;;;;;;;;1757551;81;25449;-47
2023/02/15 06:07:29;;;;;;;102.60;92.10;;;;;;;;;;1757526;81;27399;-46
2023/02/15 06:09:55;;;;;;;53.70;23.90;;;;;;;;;;1757565;81;25532;-46
2023/02/15 06:12:21;;;;;;;68.30;39.27;;;;;;;;;;1757621;81;28055;-46
2023/02/15 06:14:47;;;;;;;60.85;38.42;;;;;;;;;;1757608;81;27614;-46
2023/02/15 06:17:14;;;;;;;69.75;46.28;;;;;;;;;;1757703;81;32622;-46
2023/02/15 06:19:40;;;;;;;50.50;21.42;;;;;;;;;;1757733;81;27440;-46
2023/02/15 06:22:06;;;;;;;55.12;34.03;;;;;;;;;;1757569;81;31505;-47
2023/02/15 06:24:32;;;;;;;95.83;85.60;;;;;;;;;;1757616;81;25461;-46
2023/02/15 06:26:58;;;;;;;100.47;90.72;;;;;;;;;;1757586;81;34727;-46
2023/02/15 06:29:24;;;;;;;99.90;90.17;;;;;;;;;;1757680;81;32183;-46
2023/02/15 06:31:50;;;;;;;100.60;90.93;;;;;;;;;;1757504;81;27457;-47
2023/02/15 06:34:16;;;;;;;102.87;92.77;;;;;;;;;;1757617;81;27171;-49
2023/02/15 06:36:42;;;;;;;102.72;92.55;;;;;;;;;;1757708;81;25576;-46
2023/02/15 06:39:08;;;;;;;103.07;92.12;;;;;;;;;;1757651;81;27473;-46
2023/02/15 06:41:34;;;;;;;104.23;94.10;;;;;;;;;;1757709;81;31322;-46
2023/02/15 06:44:00;;;;;;;102.25;91.72;;;;;;;;;;1757621;81;27405;-46
2023/02/15 06:46:27;;;;;;;101.43;91.30;;;;;;;;;;1757573;81;29082;-47
2023/02/15 06:48:53;;;;;;;66.35;55.28;;;;;;;;;;1757678;81;25477;-47
2023/02/15 06:51:19;;;;;;;52.70;28.30;;;;;;;;;;1757565;81;34772;-47
2023/02/15 06:53:44;;;;;;;53.42;25.97;;;;;;;;;;1757640;81;32234;-47
2023/02/15 06:56:11;;;;;;;105.32;94.85;;;;;;;;;;1756007;80;27262;-47
2023/02/15 06:58:38;;;;;;;103.30;93.10;;;;;;;;;;1755359;81;27097;-47
2023/02/15 07:01:06;;;;;;;103.05;92.27;;;;;;;;;;1755464;81;25582;-49
2023/02/15 07:03:32;;;;;;;105.27;94.13;;;;;;;;;;1755446;81;25942;-50
2023/02/15 07:06:00;;;;;;;101.40;91.28;;;;;;;;;;1755512;81;25444;-47
2023/02/15 07:08:27;;;;;;;102.60;92.20;;;;;;;;;;1755454;81;27381;-47
2023/02/15 07:10:54;;;;;;;67.95;55.48;;;;;;;;;;1755352;81;25873;-48
2023/02/15 07:13:21;;;;;;;102.70;92.42;;;;;;;;;;1755520;81;25179;-46
2023/02/15 07:15:47;;;;;;;102.40;92.27;;;;;;;;;;1755403;81;27545;-47
2023/02/15 07:18:14;;;;;;;89.60;80.03;;;;;;;;;;1755518;81;25507;-47
2023/02/15 07:20:41;;;;;;;100.02;90.10;;;;;;;;;;1755432;81;27893;-46
2023/02/15 07:23:08;;;;;;;103.07;92.27;;;;;;;;;;1755406;81;25633;-49
2023/02/15 07:25:35;;;;;;;104.12;93.58;;;;;;;;;;1755468;81;25640;-50
2023/02/15 07:28:04;;;;;;;102.82;92.65;;;;;;;;;;1755517;81;25479;-50
2023/02/15 07:30:31;;;;;;;103.83;93.60;;;;;;;;;;1755596;81;25581;-50
2023/02/15 07:35:51;;;;;;;102.62;92.35;;;;;;;;;;1719258;83;25743;-47
2023/02/15 07:38:19;;;;;;;105.65;94.92;;;;;;;;;;1718449;83;25668;-47
2023/02/15 07:40:46;;;;;;;103.00;92.50;;;;;;;;;;1719266;83;25484;-48
2023/02/15 07:43:13;;;;;;;104.25;93.60;;;;;;;;;;1719297;83;25524;-47
2023/02/15 07:45:40;;;;;;;102.10;91.95;;;;;;;;;;1719234;83;27759;-47
2023/02/15 07:48:07;;;;;;;101.07;90.97;;;;;;;;;;1719158;83;25645;-47
2023/02/15 07:50:34;;;;;;;103.62;92.97;;;;;;;;;;1719200;83;25602;-49
2023/02/15 07:53:03;;;;;;;99.90;89.92;;;;;;;;;;1719173;83;25913;-46
2023/02/15 07:55:30;;;;;;;;;;;;;;;;;;1721748;83;26140;-49
2023/02/15 07:57:56;;;;;;;96.78;87.42;;;;;;;;;;1694357;84;29850;-47
2023/02/15 08:00:24;;;;;;;101.70;91.40;;;;;;;;;;1719168;83;25610;-47
2023/02/15 08:03:13;;;;;;;71.20;64.30;;;;;;;;;;1719429;83;25807;-46
2023/02/15 08:05:41;;;;;;;98.33;88.82;;;;;;;;;;1719229;83;25528;-47
2023/02/15 08:08:29;;;;;;;70.60;63.80;;;;;;;;;;1719354;83;25517;-48
2023/02/15 08:13:21;;;;;;;99.58;90.10;;;;;;;;;;1779849;80;25500;-48
2023/02/15 08:15:50;;;;;;;100.27;90.22;;;;;;;;;;1779875;80;25419;-47
2023/02/15 08:18:16;;;;;;;53.78;31.17;;;;;;;;;;1779867;80;25447;-47
2023/02/15 08:20:42;;;;;;;49.63;21.70;;;;;;;;;;1779903;80;32148;-48
2023/02/15 08:23:09;;;;;;;50.73;21.25;;;;;;;;;;1779872;80;27395;-47
2023/02/15 08:25:35;;;;;;;40.12;17.75;;;;;;;;;;1779830;80;25606;-47
2023/02/15 08:28:01;;;;;;;45.80;19.43;;;;;;;;;;1779929;80;29039;-47
2023/02/15 08:30:27;;;;;;;46.63;23.12;;;;;;;;;;1779884;80;34774;-47
2023/02/15 08:32:53;;;;;;;65.10;57.83;;;;;;;;;;1779872;80;32177;-49
2023/02/15 08:35:19;;;;;;;102.83;92.57;;;;;;;;;;1779924;80;27436;-48
2023/02/15 08:37:45;;;;;;;100.00;90.43;;;;;;;;;;1779821;80;32196;-49
2023/02/15 08:40:13;;;;;;;101.90;91.95;;;;;;;;;;1779839;80;25404;-47
2023/02/15 08:42:40;;;;;;;99.52;89.40;;;;;;;;;;1779921;80;27431;-47
2023/02/15 08:45:09;;;;;;;102.78;92.45;;;;;;;;;;1779924;80;25619;-48
2023/02/15 08:47:34;;;;;;;107.80;96.55;;;;;;;;;;1779890;80;28068;-48
2023/02/15 08:50:00;;;;;;;109.00;96.67;;;;;;;;;;1779767;80;27103;-47
2023/02/15 08:52:26;;;;;;;101.93;91.73;;;;;;;;;;1779808;80;25619;-46
2023/02/15 08:54:53;;;;;;;103.83;93.22;;;;;;;;;;1779822;80;25850;-46
2023/02/15 08:57:19;;;;;;;101.80;91.50;;;;;;;;;;1779834;80;25190;-47
2023/02/15 08:59:47;;;;;;;102.17;92.03;;;;;;;;;;1779915;80;27359;-47
2023/02/15 09:02:12;;;;;;;100.97;91.32;;;;;;;;;;1779890;80;25394;-48
2023/02/15 09:04:39;;;;;;;100.10;89.50;;;;;;;;;;1779864;80;25595;-47
2023/02/15 09:07:05;;;;;;;99.17;89.40;;;;;;;;;;1780153;80;25490;-47
2023/02/15 09:09:31;;;;;;;98.20;88.58;;;;;;;;;;1779986;80;25579;-46
2023/02/15 09:11:58;;;;;;;100.97;90.17;;;;;;;;;;1779933;80;27395;-46
2023/02/15 09:14:25;;;;;;;94.97;86.07;;;;;;;;;;1779872;80;25681;-48
2023/02/15 09:16:53;;;;;;;94.77;85.70;;;;;;;;;;1779922;80;25365;-44
2023/02/15 09:19:22;;;;;;;63.05;46.70;;;;;;;;;;1779892;80;25573;-47
2023/02/15 09:21:49;;;;;;;50.23;20.57;;;;;;;;;;1780051;80;25616;-47
2023/02/15 09:24:17;;;;;;;53.02;21.95;;;;;;;;;;1779896;80;27351;-47
2023/02/15 09:26:46;;;;;;;57.27;21.73;;;;;;;;;;1779936;80;25469;-47
2023/02/15 09:29:15;;;;;;;52.08;21.07;;;;;;;;;;1780047;80;28925;-47
2023/02/15 09:31:44;;;;;;;59.40;24.92;;;;;;;;;;1779825;80;25596;-47
2023/02/15 09:34:16;;;;;;;45.70;18.98;;;;;;;;;;1779933;80;25435;-47
2023/02/15 09:36:44;;;;;;;51.75;19.55;;;;;;;;;;1779867;80;27983;-47
2023/02/15 09:39:25;;;;;;;48.45;18.52;;;;;;;;;;1779760;80;25533;-47
2023/02/15 09:42:17;;;;;;;39.73;16.10;;;;;;;;;;1779879;80;25618;-47
2023/02/15 09:44:55;;;;;;;42.43;17.52;;;;;;;;;;1661238;85;27518;-48
2023/02/15 09:47:40;;;;;;;91.47;82.25;;;;;;;;;;1696953;84;25623;-47
2023/02/15 09:50:15;;;;;;;97.80;88.58;;;;;;;;;;1696696;84;27412;-47
2023/02/15 09:52:48;;;;;;;95.95;86.45;;;;;;;;;;1697154;84;25756;-48
2023/02/15 09:55:32;;;;;;;95.87;86.92;;;;;;;;;;1690870;84;25689;-49
2023/02/15 09:58:27;;;;;;;88.40;80.10;;;;;;;;;;1697243;84;25683;-48
2023/02/15 10:01:19;;;;;;;39.20;22.90;;;;;;;;;;1697301;84;25473;-48
2023/02/15 10:04:17;;;;;;;97.05;88.33;;;;;;;;;;1697044;84;27419;-49
2023/02/15 10:06:50;;;;;;;79.58;72.05;;;;;;;;;;1697229;84;25650;-47
2023/02/15 10:09:35;;;;;;;94.97;86.32;;;;;;;;;;1695809;84;25655;-46
2023/02/15 10:12:31;;;;;;;94.47;85.70;;;;;;;;;;1697181;84;25477;-47
2023/02/15 10:15:26;;;;;;;93.30;84.75;;;;;;;;;;1696977;84;25668;-47
2023/02/15 10:18:07;;;;;;;92.42;84.07;;;;;;;;;;1696890;84;27466;-47
2023/02/15 10:21:02;;;;;;;95.40;86.70;;;;;;;;;;1699960;81;25652;-48
2023/02/15 10:23:35;;;;;;;96.63;87.72;;;;;;;;;;1755580;81;25424;-47
2023/02/15 10:26:14;;;;;;;91.63;83.25;;;;;;;;;;1754873;81;25400;-47
2023/02/15 10:28:43;;;;;;;37.08;14.63;;;;;;;;;;1755103;81;25609;-46
2023/02/15 10:31:26;;;;;;;;;;;;;;;;;;1756617;81;27343;-50
2023/02/15 10:34:14;;;;;;;36.15;15.28;;;;;;;;;;1763620;81;25282;-48
2023/02/15 10:37:17;;;;;;;29.77;13.70;;;;;;;;;;1755666;81;25207;-46
2023/02/15 10:39:50;;;;;;;35.05;14.95;;;;;;;;;;1725448;83;25397;-48
2023/02/15 10:42:29;;;;;;;34.00;15.13;;;;;;;;;;1725567;83;25438;-46
2023/02/15 10:45:14;;;;;;;38.53;15.45;;;;;;;;;;1724055;83;27957;-48
2023/02/15 10:48:15;;;;;;;36.80;14.50;;;;;;;;;;1755240;81;25456;-46
2023/02/15 10:51:05;;;;;;;38.10;15.88;;;;;;;;;;1755597;81;25577;-46
2023/02/15 10:53:52;;;;;;;40.58;16.97;;;;;;;;;;1755513;81;26051;-47
2023/02/15 10:56:31;;;;;;;40.67;15.78;;;;;;;;;;1698018;84;25520;-47
2023/02/15 10:59:02;;;;;;;;;;;;;;;;;;1700754;84;27670;-47
2023/02/15 11:01:38;;;;;;;36.38;13.18;;;;;;;;;;1698221;84;25377;-47
2023/02/15 11:04:28;;;;;;;41.75;16.32;;;;;;;;;;1698239;84;25606;-48
2023/02/15 11:06:58;;;;;;;41.13;14.70;;;;;;;;;;1698283;84;25540;-47
2023/02/15 11:09:29;;;;;;;40.50;14.73;;;;;;;;;;1696937;84;25500;-46
2023/02/15 11:12:00;;;;;;;39.15;16.57;;;;;;;;;;1698199;84;27366;-46
2023/02/15 11:14:37;;;;;;;43.95;17.42;;;;;;;;;;1697948;83;25873;-47
2023/02/15 11:17:10;;;;;;;39.20;15.68;;;;;;;;;;1698352;84;25610;-46
2023/02/15 11:19:46;;;;;;;38.48;15.18;;;;;;;;;;1698140;83;25467;-47
2023/02/15 11:22:13;;;;;;;51.85;20.43;;;;;;;;;;1698065;83;25481;-47
2023/02/15 11:24:44;;;;;;;48.73;19.65;;;;;;;;;;1698160;84;28047;-48
2023/02/15 11:27:17;;;;;;;43.25;17.48;;;;;;;;;;1698053;84;25736;-49
2023/02/15 11:29:56;;;;;;;33.95;14.38;;;;;;;;;;1704841;81;25614;-47
2023/02/15 11:32:28;;;;;;;43.48;24.52;;;;;;;;;;1755600;81;25388;-48
2023/02/15 11:35:13;;;;;;;55.98;38.70;;;;;;;;;;1755524;81;25457;-47
2023/02/15 11:37:55;;;;;;;49.95;32.85;;;;;;;;;;1755475;81;27490;-49
2023/02/15 11:40:31;;;;;;;59.85;40.80;;;;;;;;;;1721472;83;25682;-47
2023/02/15 11:43:01;;;;;;;62.58;53.15;;;;;;;;;;1755487;81;25469;-46
2023/02/15 11:45:32;;;;;;;66.75;54.45;;;;;;;;;;1721087;83;25729;-49
2023/02/15 11:47:59;;;;;;;97.27;87.97;;;;;;;;;;1754295;81;25707;-47
2023/02/15 11:50:33;;;;;;;94.85;85.60;;;;;;;;;;1720499;83;27386;-46
2023/02/15 11:53:17;;;;;;;97.35;88.17;;;;;;;;;;1755236;81;25851;-47
2023/02/15 11:55:46;;;;;;;96.30;87.25;;;;;;;;;;1721491;83;25653;-50
2023/02/15 11:58:35;;;;;;;99.27;89.67;;;;;;;;;;1761371;81;25426;-47
2023/02/15 12:01:23;;;;;;;95.17;86.35;;;;;;;;;;1782836;80;25623;-47
2023/02/15 12:03:56;;;;;;;94.42;85.32;;;;;;;;;;1782645;80;27567;-47
2023/02/15 12:06:26;;;;;;;97.75;88.00;;;;;;;;;;1780661;80;25924;-48
2023/02/15 12:09:06;;;;;;;94.42;85.28;;;;;;;;;;1782652;80;25450;-47
2023/02/15 12:11:39;;;;;;;95.75;86.92;;;;;;;;;;1782635;80;27469;-47
2023/02/15 12:14:08;;;;;;;47.38;28.87;;;;;;;;;;1782430;80;25629;-48
2023/02/15 12:16:41;;;;;;;96.22;87.62;;;;;;;;;;1754289;80;27409;-48
2023/02/15 12:19:14;;;;;;;38.20;16.40;;;;;;;;;;1782611;80;25550;-47
2023/02/15 12:23:07;;;;;;;46.18;19.23;;;;;;;2.34;97.39;101778.14;1868117;76;34705;-47
2023/02/15 12:25:41;;;;;;;49.58;18.23;;;;;;;2.29;97.19;101774.50;1756691;81;25462;-47
2023/02/15 12:28:37;;;;;;;53.65;24.27;;;;;;;2.35;97.33;101777.61;1768947;81;27491;-46
2023/02/15 12:31:23;;;;;;;45.55;19.75;;;;;;;2.38;97.25;101768.67;1756924;81;27383;-47
2023/02/15 12:33:54;;;;;;;38.42;15.80;;;;;;;2.38;96.56;101762.49;1777014;80;25448;-47
2023/02/15 12:36:46;;;;;;;35.43;16.10;;;;;;;2.34;96.22;101756.78;1756933;81;25510;-49
2023/02/15 12:39:19;;;;;;;43.85;16.90;;;;;;;2.32;96.15;101759.37;1771162;80;25401;-47
2023/02/15 12:42:01;;;;;;;40.55;15.58;;;;;;;2.29;96.25;101755.28;1756908;81;27515;-50
2023/02/15 12:44:32;;;;;;;35.63;15.55;;;;;;;2.26;96.16;101744.22;1775363;80;25570;-47
2023/02/15 12:47:06;;;;;;;38.42;16.02;;;;;;;2.24;96.24;101747.91;1777036;80;25705;-48
2023/02/15 12:49:37;;;;;;;39.27;15.43;;;;;;;2.24;96.33;101747.91;1776859;80;25617;-50
2023/02/15 12:52:21;;;;;;;43.15;16.00;;;;;;;2.23;96.51;101746.78;1756940;81;25186;-51
2023/02/15 12:54:50;;;;;;;34.45;14.00;;;;;;;2.23;96.41;101742.29;1770166;81;27506;-48
2023/02/15 12:57:33;;;;;;;33.38;15.05;;;;;;;2.21;96.45;101735.52;1756924;81;25404;-47
2023/02/15 13:00:06;;;;;;;36.90;16.20;;;;;;;2.23;96.80;101738.28;1761294;81;25563;-48
2023/02/15 13:02:49;;;;;;;43.60;16.52;;;;;;;2.26;96.88;101729.53;1756858;81;25678;-48
2023/02/15 13:05:38;;;;;;;42.03;17.95;;;;;;;2.28;96.87;101723.45;1777022;80;25460;-47
2023/02/15 13:08:21;;;;;;;38.60;15.00;;;;;;;2.30;97.03;101728.89;1777181;80;27484;-49
2023/02/15 13:11:00;;;;;;;41.37;15.95;;;;;;;2.30;96.91;101726.71;1776895;80;25595;-47
2023/02/15 13:13:31;;;;;;;42.83;17.00;;;;;;;2.30;96.76;101728.05;1776974;80;25522;-47
2023/02/15 13:16:12;;;;;;;40.98;15.75;;;;;;;2.28;96.82;101720.78;1756884;81;25443;-47
2023/02/15 13:18:45;;;;;;;36.40;15.60;;;;;;;2.29;97.03;101721.90;1771015;81;25398;-46
2023/02/15 13:21:22;;;;;;;36.10;15.85;;;;;;;2.32;96.98;101715.32;1756568;81;27532;-47
2023/02/15 13:23:57;;;;;;;42.65;16.80;;;;;;;2.34;97.21;101716.72;1770894;81;25875;-50
2023/02/15 13:26:29;;;;;;;42.40;17.37;;;;;;;2.38;97.30;101715.77;1756891;81;25520;-47
2023/02/15 13:29:05;;;;;;;39.63;14.87;;;;;;;2.38;97.05;101711.26;1776984;80;25896;-48
2023/02/15 13:31:33;;;;;;;45.28;16.65;;;;;;;2.36;96.87;101708.49;1776915;80;25649;-47
2023/02/15 13:34:19;;;;;;;50.67;17.98;;;;;;;2.33;96.67;101704.92;1756352;81;27462;-47
2023/02/15 13:37:09;;;;;;;51.33;17.62;;;;;;;2.28;96.51;101704.76;1775968;80;25555;-47
2023/02/15 13:40:00;;;;;;;39.75;15.43;;;;;;;2.24;96.72;101701.19;1756362;81;25510;-47
2023/02/15 13:42:35;;;;;;;46.50;17.05;;;;;;;2.20;96.82;101692.52;1776511;80;25803;-47
2023/02/15 13:45:30;;;;;;;42.95;16.85;;;;;;;2.19;97.22;101694.34;1756363;81;25590;-50
2023/02/15 13:48:21;;;;;;;44.05;15.88;;;;;;;2.20;97.31;101689.84;1776418;80;27497;-48
2023/02/15 13:51:05;;;;;;;42.38;15.70;;;;;;;2.20;97.31;101693.85;1776357;80;25468;-47
2023/02/15 13:54:13;;;;;;;43.98;15.88;;;;;;;2.19;97.42;101691.68;1775496;80;25537;-50
2023/02/15 13:57:36;;;;;;;28.38;10.43;;;;;;;2.20;97.39;101697.33;1776505;80;25547;-47
2023/02/15 14:00:20;;;;;;;41.70;15.53;;;;;;;2.19;97.37;101697.55;1776504;80;25613;-48
2023/02/15 14:03:06;;;;;;;44.60;16.37;;;;;;;2.22;97.54;101696.59;1776409;80;26727;-46
2023/02/15 14:06:05;;;;;;;38.02;14.43;;;;;;;2.21;97.52;101692.30;1774917;80;25690;-47
2023/02/15 14:09:12;;;;;;;50.33;19.02;;;;;;;2.23;97.53;101693.39;1756451;81;25608;-47
2023/02/15 14:12:13;;;;;;;49.30;19.73;;;;;;;2.22;97.43;101686.44;1776395;80;25399;-48
2023/02/15 14:15:09;;;;;;;52.75;16.85;;;;;;;2.19;97.40;101678.33;1776411;80;25532;-49
2023/02/15 14:18:01;;;;;;;46.70;16.60;;;;;;;2.20;97.61;101681.31;1776377;80;29727;-46
2023/02/15 14:21:08;;;;;;;40.52;16.80;;;;;;;2.20;97.70;101675.97;1776301;80;27455;-47
2023/02/15 14:24:03;;;;;;;46.83;17.02;;;;;;;2.22;97.85;101677.09;1776343;80;25408;-46
2023/02/15 14:27:12;;;;;;;49.03;17.48;;;;;;;2.21;97.72;101675.45;1776367;80;25585;-47
2023/02/15 14:29:56;;;;;;;68.22;25.92;;;;;;;2.21;97.70;101673.61;1776557;80;25447;-45
2023/02/15 14:32:32;;;;;;;51.10;21.73;;;;;;;2.23;98.06;101670.70;1756006;81;27439;-48
2023/02/15 14:35:07;;;;;;;49.13;18.98;;;;;;;2.22;97.86;101667.75;1754707;81;25394;-48
2023/02/15 14:37:57;;;;;;;50.98;19.77;;;;;;;2.17;97.49;101675.06;1775988;80;25604;-47